Mobridge, SD

8:30 AM CDT on July 29, 2016 (GMT -0500)
Mobridge Municipal | | Change Station

Elev 1716 ft 45.55 °N, 100.41 °W | Updated 38 minutes ago

Overcast
Overcast
69 °F
Feels Like 69 °F
N
4
Wind Variable Wind from East

Today
High -- | Low -- °F
--% Chance of Precip.
Yesterday
High -- | Low -- °F
Precip. -- in
Pressure 30.04 in
Visibility 10.0 miles
Clouds Overcast 7000 ft
Dew Point 60 °F
Humidity 73%
Rainfall 0.00 in
Snow Depth Not available.
6:22 AM 9:12 PM
Waning Crescent, 22% visible
METAR KMBG 291252Z AUTO 09003KT 10SM OVC070 21/16 A3006 RMK AO2 SLP171 T02060156
Pressure 30.04 in
Visibility 10.0 miles
Clouds Overcast 7000 ft
Dew Point 60 °F
Humidity 73%
Rainfall 0.00 in
Snow Depth Not available.
6:22 AM 9:12 PM
Waning Crescent, 22% visible
METAR KMBG 291252Z AUTO 09003KT 10SM OVC070 21/16 A3006 RMK AO2 SLP171 T02060156

10-Day Weather Forecast

Almanac

Astronomy

Jul. 29, 2016 Rise Set
Actual Time
Civil Twilight
Nautical Twilight
Astronomical Twilight
Moon
Length of Visible Light
Length of Day
Tomorrow will be .
, % of the Moon is Illuminated

Today's Extremes

State Highs State Lows

Community

WunderPhotos

Upload Photos

1,928,339 photos uploaded!

WunderBlog® & News

Nearby

Air Quality

  Air Quality AQ Index Pollutant
Not available.

Snow Depth

Station Depth Elevation

Earthquake Activity

City Distance Mag. Time & Date
Minimum magnitude displayed is 2.5.

Coastal Water Temperatures

Place Temperature

Stations

Nearby Weather Stations

Station Location Temp. Windchill Dew Point Humidity Wind Precip. Elev Updated Type
                   

Watches & Warnings

There are currently no watches in effect.